Northern & Central Napa County

32 Stations

15 Minute Data | America/Los_Angeles
as of 5/3/26 11:37 AM PDT
Station Date Time Temp (°F) RH (%) Dew Pt (°F) Wind Spd (mph) Wind Dir (°) Wind Gust (mph) Latest Rain (In) Daily Rain (In) Daily Max Temp (°F) Daily Min Temp (°F)
Calistoga-North 5/3/26 1130 58.6   6.9 69   4 48.6   4.9 - - - 0.00 0.00 83.7   0.0 45.5   0.0
Stags Leap Dist (Chimney Rock) 5/3/26 1130 61.4   2.8 66   13 50.0   2.2 2.4   0.6 WNW | 285 6.9   1.2 0.00 0.00 61.7   2.5 52.7   0.6
Diamond Mtn (McEachran) 5/3/26 1130 55.8   1.4 70   9 46.1   4.5 - - - - - 56.7   0.9 51.2   0.0
Diamond Mtn (Schramsberg) 5/3/26 1130 56.4   0.0 69   12 46.2   4.5 - - - 0.00 0.00 56.6   0.3 49.8   0.5
Stags Leap Dist (Silverado Vineyards) 5/3/26 1130 59.7   1.5 62   10 46.9   2.6 2.0   0.9 NNW | 346 5.9   1.3 0.00 0.00 60.2   1.6 51.4   0.9
Oak Knoll-East (Ranch 53) 5/3/26 1130 64.1   3.8 52   17 46.0   3.9 3.8   0.0 WSW | 257 9.0   0.7 0.00 0.00 64.6   3.4 51.7   0.1
Rutherford-North (Mee Ln) 5/3/26 1130 59.8   0.8 62   8 46.6   4.1 4.0   1.1 WSW | 242 9.2   1.5 0.00 0.00 61.4   0.2 52.2   2.0
Frisinger Napa-NW 5/3/26 1130 61.6   1.8 60   14 47.7   4.1 7.4   3.0 SW | 231 13.9   5.1 0.00 0.00 62.2   2.3 51.7   2.2
Napa-North (Ranch 29) 5/3/26 1130 61.0   1.9 58   15 46.2   4.4 5.2   1.4 SW | 220 11.8   2.3 0.00 0.00 61.6   2.0 53.2   0.1
St. Helena (NVV Office) 5/3/26 1130 59.4   1.8 - - 1.9   0.5 WSW | 253 7.1   0.5 0.00 0.00 59.8   2.1 53.5   0.3
Crossroads Ranch 5/3/26 1130 60.4   0.3 63   9 47.9   3.4 5.8   1.1 WSW | 258 10.7   1.6 0.00 0.00 60.4   0.3 52.7   0.3
Oakville 5/3/26 1130 59.1   1.9 61   6 45.8   4.4 6.0   1.9 WSW | 254 11.4   2.7 0.00 0.00 59.6   2.7 52.5   0.4
OV561-East 5/3/26 1130 59.6   0.8 - - - - - - - 60.1   0.7 52.9   0.8
OV518-West 5/3/26 1130 59.1   2.2 - - - - - - - 59.8   2.3 52.7   0.2
Napa-NW (Ranch 54) 5/3/26 1130 62.6   0.0 54   10 45.9   4.4 3.7   3.1 SSW | 213 9.6   6.8 0.00 0.00 63.0   0.4 51.8   0.5
Calistoga (Ranch 78) 5/3/26 1130 58.6   1.6 62   8 45.5   4.8 3.3   2.0 W | 264 8.6   4.8 0.00 0.00 59.0   1.2 52.8   0.3
Yountville-SE (Ranch 85) 5/3/26 1130 61.4   2.5 60   13 47.6   3.0 3.7   0.0 NNW | 337 9.5   0.9 0.00 0.00 61.9   2.4 52.7   0.5
Yountville-South (Ranch 87) 5/3/26 1130 62.0   2.8 58   15 47.2   3.5 3.5   0.9 WSW | 242 7.1   0.1 0.00 0.00 63.0   3.5 51.3   1.0
Rutherford Hill Estate 5/3/26 1130 59.1   0.7 66   8 47.6   3.6 2.3   0.3 W | 279 5.9   0.4 0.00 0.00 59.5   1.6 51.3   0.0
Rutherford (STS) 5/3/26 1130 61.9   0.3 67   8 50.9   2.8 4.1   2.0 W | 268 9.6   3.6 0.00 0.00 61.9   0.3 52.5   0.0
Borreo (Soda Canyon) 5/3/26 1130 57.5   1.2 64   12 45.6   3.5 3.3   0.5 S | 172 8.6   0.7 0.00 0.00 58.0   0.6 48.3   2.6
Oakville-NE (Ranch 88) 5/3/26 1130 60.2   2.2 58   5 45.2   4.4 4.8   0.5 W | 274 10.3   1.1 0.00 0.00 61.0   2.5 52.5   0.5
Soda Canyon 5/3/26 1130 61.3   2.7 66   11 49.9   1.5 4.1   1.2 SW | 227 9.7   2.9 0.00 0.00 62.2   3.2 52.0   1.6
Silver Oak OV 5/3/26 1130 59.6   0.5 63   9 46.9   4.2 5.6   1.5 WSW | 242 10.0   0.8 0.00 0.00 60.2   0.6 52.6   0.5
Tiara Fria (East St. Helena) 5/3/26 1130 59.0   0.4 64   7 47.0   3.1 5.0   2.4 WSW | 257 9.9   3.7 0.00 0.00 59.5   0.2 53.3   0.2
To Kalon Remote (TKKE) 5/3/26 1130 60.9   0.1 - - - - - - - 61.8   0.5 53.1   0.2
To Kalon 5/3/26 1130 59.5   0.0 64   9 47.4   3.4 3.9   0.2 W | 275 9.7   2.7 0.00 0.00 60.7   0.6 52.4   0.3
To Kalon Remote (TKN5) 5/3/26 1130 59.9   1.6 - - - - - - - 60.7   1.6 53.0   0.6
St. Helena-North 5/3/26 1130 58.8   0.1 60   10 44.8   4.2 2.1   0.3 WSW | 252 5.7   0.9 0.00 0.00 59.8   0.1 53.3   0.4
Twomey Calistoga 5/3/26 1130 58.9   1.9 65   7 47.0   4.6 4.1   2.0 WNW | 303 8.9   3.6 0.00 0.00 59.0   1.8 53.0   0.4
Wappo Hill Floor 5/3/26 1130 61.6   1.1 61   10 48.0   3.0 4.5   1.8 SW | 236 8.7   1.3 0.00 0.00 62.2   1.1 52.2   0.3
Yountville (Ranch 67) 5/3/26 1130 59.3   0.4 59   11 45.1   4.0 5.2   1.4 WNW | 293 9.7   1.9 0.00 0.00 59.6   0.6 51.8   0.4
Max     64.1 70 50.9 7.4 - 13.9 0.00 0.00 83.7 53.5
Avg     59.9 62 47.0 4.1 - 9.1 0.00 - - -
Min     55.8 52 44.8 1.9 - 5.7 0.00 0.00 56.6 45.5